sensor_id;sensor_type;location;lat;lon;timestamp;P1;durP1;ratioP1;P2;durP2;ratioP2
56670;SDS011;42545;50.054;8.306;2022-10-16T00:00:46;1.05;;;0.68;;
56670;SDS011;42545;50.054;8.306;2022-10-16T00:03:12;0.57;;;0.57;;
56670;SDS011;42545;50.054;8.306;2022-10-16T00:05:40;0.80;;;0.80;;
56670;SDS011;42545;50.054;8.306;2022-10-16T00:08:09;0.70;;;0.70;;
56670;SDS011;42545;50.054;8.306;2022-10-16T00:10:38;0.70;;;0.70;;
56670;SDS011;42545;50.054;8.306;2022-10-16T00:13:06;0.98;;;0.80;;
56670;SDS011;42545;50.054;8.306;2022-10-16T00:15:33;0.80;;;0.80;;
56670;SDS011;42545;50.054;8.306;2022-10-16T00:18:02;1.10;;;1.00;;
56670;SDS011;42545;50.054;8.306;2022-10-16T00:20:29;0.77;;;0.77;;
56670;SDS011;42545;50.054;8.306;2022-10-16T00:22:58;0.60;;;0.60;;
56670;SDS011;42545;50.054;8.306;2022-10-16T00:25:25;0.80;;;0.80;;
56670;SDS011;42545;50.054;8.306;2022-10-16T00:27:54;0.80;;;0.80;;
56670;SDS011;42545;50.054;8.306;2022-10-16T00:30:20;0.77;;;0.70;;
56670;SDS011;42545;50.054;8.306;2022-10-16T00:32:48;0.90;;;0.90;;
56670;SDS011;42545;50.054;8.306;2022-10-16T00:35:19;0.70;;;0.70;;
56670;SDS011;42545;50.054;8.306;2022-10-16T00:37:46;0.95;;;0.88;;
56670;SDS011;42545;50.054;8.306;2022-10-16T00:40:12;0.80;;;0.80;;
56670;SDS011;42545;50.054;8.306;2022-10-16T00:42:39;1.10;;;1.00;;
56670;SDS011;42545;50.054;8.306;2022-10-16T00:45:09;0.90;;;0.90;;
56670;SDS011;42545;50.054;8.306;2022-10-16T00:47:38;0.80;;;0.80;;
56670;SDS011;42545;50.054;8.306;2022-10-16T00:50:08;1.27;;;1.10;;
56670;SDS011;42545;50.054;8.306;2022-10-16T00:52:39;1.45;;;1.20;;
56670;SDS011;42545;50.054;8.306;2022-10-16T00:55:10;1.20;;;1.10;;
56670;SDS011;42545;50.054;8.306;2022-10-16T00:57:37;1.20;;;1.10;;
56670;SDS011;42545;50.054;8.306;2022-10-16T01:00:08;1.70;;;1.60;;
56670;SDS011;42545;50.054;8.306;2022-10-16T01:02:40;1.38;;;1.17;;
56670;SDS011;42545;50.054;8.306;2022-10-16T01:05:07;1.25;;;1.10;;
56670;SDS011;42545;50.054;8.306;2022-10-16T01:07:37;1.35;;;1.23;;
56670;SDS011;42545;50.054;8.306;2022-10-16T01:10:14;1.63;;;1.50;;
56670;SDS011;42545;50.054;8.306;2022-10-16T01:12:50;1.25;;;1.15;;
56670;SDS011;42545;50.054;8.306;2022-10-16T01:15:27;1.20;;;1.10;;
56670;SDS011;42545;50.054;8.306;2022-10-16T01:18:00;1.05;;;0.95;;
56670;SDS011;42545;50.054;8.306;2022-10-16T01:20:35;1.10;;;1.00;;
56670;SDS011;42545;50.054;8.306;2022-10-16T01:23:10;1.30;;;1.20;;
56670;SDS011;42545;50.054;8.306;2022-10-16T01:25:54;1.77;;;1.52;;
56670;SDS011;42545;50.054;8.306;2022-10-16T01:28:34;1.40;;;1.17;;
56670;SDS011;42545;50.054;8.306;2022-10-16T01:31:05;1.40;;;1.30;;
56670;SDS011;42545;50.054;8.306;2022-10-16T01:33:34;1.15;;;1.05;;
56670;SDS011;42545;50.054;8.306;2022-10-16T01:36:06;1.10;;;0.98;;
56670;SDS011;42545;50.054;8.306;2022-10-16T01:38:38;1.10;;;1.00;;
56670;SDS011;42545;50.054;8.306;2022-10-16T01:41:07;1.23;;;1.10;;
56670;SDS011;42545;50.054;8.306;2022-10-16T01:43:40;1.83;;;1.20;;
56670;SDS011;42545;50.054;8.306;2022-10-16T01:46:12;1.40;;;1.30;;
56670;SDS011;42545;50.054;8.306;2022-10-16T01:48:44;1.42;;;1.33;;
56670;SDS011;42545;50.054;8.306;2022-10-16T01:51:13;1.20;;;1.10;;
56670;SDS011;42545;50.054;8.306;2022-10-16T01:56:13;1.25;;;1.15;;
56670;SDS011;42545;50.054;8.306;2022-10-16T01:58:46;1.05;;;0.95;;
56670;SDS011;42545;50.054;8.306;2022-10-16T02:01:17;0.80;;;0.80;;
56670;SDS011;42545;50.054;8.306;2022-10-16T02:03:49;1.13;;;1.02;;
56670;SDS011;42545;50.054;8.306;2022-10-16T02:06:19;0.80;;;0.80;;
56670;SDS011;42545;50.054;8.306;2022-10-16T02:08:46;0.70;;;0.70;;
56670;SDS011;42545;50.054;8.306;2022-10-16T02:11:13;0.80;;;0.80;;
56670;SDS011;42545;50.054;8.306;2022-10-16T02:13:45;1.10;;;1.00;;
56670;SDS011;42545;50.054;8.306;2022-10-16T02:16:14;1.10;;;1.00;;
56670;SDS011;42545;50.054;8.306;2022-10-16T02:18:41;1.10;;;1.00;;
56670;SDS011;42545;50.054;8.306;2022-10-16T02:21:11;0.80;;;0.80;;
56670;SDS011;42545;50.054;8.306;2022-10-16T02:23:45;1.10;;;1.00;;
56670;SDS011;42545;50.054;8.306;2022-10-16T02:26:21;1.05;;;0.95;;
56670;SDS011;42545;50.054;8.306;2022-10-16T02:28:59;1.10;;;1.00;;
56670;SDS011;42545;50.054;8.306;2022-10-16T02:31:31;1.83;;;1.58;;
56670;SDS011;42545;50.054;8.306;2022-10-16T02:34:01;1.45;;;1.20;;
56670;SDS011;42545;50.054;8.306;2022-10-16T02:36:31;1.10;;;1.00;;
56670;SDS011;42545;50.054;8.306;2022-10-16T02:38:59;1.15;;;1.00;;
56670;SDS011;42545;50.054;8.306;2022-10-16T02:41:28;1.42;;;1.33;;
56670;SDS011;42545;50.054;8.306;2022-10-16T02:43:58;1.40;;;1.30;;
56670;SDS011;42545;50.054;8.306;2022-10-16T02:46:25;1.33;;;1.20;;
56670;SDS011;42545;50.054;8.306;2022-10-16T02:48:52;1.20;;;1.10;;
56670;SDS011;42545;50.054;8.306;2022-10-16T02:51:18;1.50;;;1.40;;
56670;SDS011;42545;50.054;8.306;2022-10-16T02:53:46;1.40;;;1.30;;
56670;SDS011;42545;50.054;8.306;2022-10-16T02:56:12;1.70;;;1.50;;
56670;SDS011;42545;50.054;8.306;2022-10-16T02:58:39;1.33;;;1.10;;
56670;SDS011;42545;50.054;8.306;2022-10-16T03:01:08;1.75;;;1.38;;
56670;SDS011;42545;50.054;8.306;2022-10-16T03:03:39;1.50;;;1.40;;
56670;SDS011;42545;50.054;8.306;2022-10-16T03:06:06;2.17;;;1.90;;
56670;SDS011;42545;50.054;8.306;2022-10-16T03:08:33;2.42;;;1.95;;
56670;SDS011;42545;50.054;8.306;2022-10-16T03:11:02;2.43;;;1.80;;
56670;SDS011;42545;50.054;8.306;2022-10-16T03:13:30;1.50;;;1.40;;
56670;SDS011;42545;50.054;8.306;2022-10-16T03:15:57;2.08;;;1.88;;
56670;SDS011;42545;50.054;8.306;2022-10-16T03:18:26;2.30;;;1.80;;
56670;SDS011;42545;50.054;8.306;2022-10-16T03:20:52;1.70;;;1.50;;
56670;SDS011;42545;50.054;8.306;2022-10-16T03:23:19;1.70;;;1.40;;
56670;SDS011;42545;50.054;8.306;2022-10-16T03:25:46;1.70;;;1.40;;
56670;SDS011;42545;50.054;8.306;2022-10-16T03:28:13;1.30;;;1.20;;
56670;SDS011;42545;50.054;8.306;2022-10-16T03:30:45;1.17;;;1.02;;
56670;SDS011;42545;50.054;8.306;2022-10-16T03:33:12;1.60;;;1.50;;
56670;SDS011;42545;50.054;8.306;2022-10-16T03:35:40;1.75;;;1.35;;
56670;SDS011;42545;50.054;8.306;2022-10-16T03:38:07;1.42;;;1.33;;
56670;SDS011;42545;50.054;8.306;2022-10-16T03:40:33;1.60;;;1.48;;
56670;SDS011;42545;50.054;8.306;2022-10-16T03:43:00;1.42;;;1.30;;
56670;SDS011;42545;50.054;8.306;2022-10-16T03:45:27;2.20;;;1.67;;
56670;SDS011;42545;50.054;8.306;2022-10-16T03:47:54;1.70;;;1.50;;
56670;SDS011;42545;50.054;8.306;2022-10-16T03:50:21;1.55;;;1.38;;
56670;SDS011;42545;50.054;8.306;2022-10-16T03:52:49;1.45;;;1.35;;
56670;SDS011;42545;50.054;8.306;2022-10-16T03:55:18;1.35;;;1.25;;
56670;SDS011;42545;50.054;8.306;2022-10-16T03:57:44;1.45;;;1.20;;
56670;SDS011;42545;50.054;8.306;2022-10-16T04:00:11;1.17;;;1.05;;
56670;SDS011;42545;50.054;8.306;2022-10-16T04:02:40;1.20;;;1.10;;
56670;SDS011;42545;50.054;8.306;2022-10-16T04:05:07;2.05;;;1.80;;
56670;SDS011;42545;50.054;8.306;2022-10-16T04:07:34;2.00;;;1.80;;
56670;SDS011;42545;50.054;8.306;2022-10-16T04:10:03;2.10;;;1.75;;
56670;SDS011;42545;50.054;8.306;2022-10-16T04:12:30;1.95;;;1.77;;
56670;SDS011;42545;50.054;8.306;2022-10-16T04:14:57;1.70;;;1.50;;
56670;SDS011;42545;50.054;8.306;2022-10-16T04:17:24;1.80;;;1.50;;
56670;SDS011;42545;50.054;8.306;2022-10-16T04:19:51;1.58;;;1.48;;
56670;SDS011;42545;50.054;8.306;2022-10-16T04:22:18;1.55;;;1.45;;
56670;SDS011;42545;50.054;8.306;2022-10-16T04:24:45;1.10;;;1.00;;
56670;SDS011;42545;50.054;8.306;2022-10-16T04:27:14;1.65;;;1.30;;
56670;SDS011;42545;50.054;8.306;2022-10-16T04:29:41;2.28;;;2.00;;
56670;SDS011;42545;50.054;8.306;2022-10-16T04:32:07;1.40;;;1.30;;
56670;SDS011;42545;50.054;8.306;2022-10-16T04:37:05;3.05;;;2.70;;
56670;SDS011;42545;50.054;8.306;2022-10-16T04:39:32;2.50;;;2.20;;
56670;SDS011;42545;50.054;8.306;2022-10-16T04:41:59;2.38;;;2.17;;
56670;SDS011;42545;50.054;8.306;2022-10-16T04:44:28;2.92;;;2.10;;
56670;SDS011;42545;50.054;8.306;2022-10-16T04:46:55;2.17;;;1.98;;
56670;SDS011;42545;50.054;8.306;2022-10-16T04:49:23;2.08;;;1.63;;
56670;SDS011;42545;50.054;8.306;2022-10-16T04:51:51;2.17;;;1.97;;
56670;SDS011;42545;50.054;8.306;2022-10-16T04:54:17;3.13;;;2.60;;
56670;SDS011;42545;50.054;8.306;2022-10-16T04:56:44;2.58;;;2.17;;
56670;SDS011;42545;50.054;8.306;2022-10-16T04:59:13;2.22;;;2.03;;
56670;SDS011;42545;50.054;8.306;2022-10-16T05:01:43;2.33;;;2.10;;
56670;SDS011;42545;50.054;8.306;2022-10-16T05:04:09;2.30;;;2.10;;
56670;SDS011;42545;50.054;8.306;2022-10-16T05:06:37;2.10;;;1.70;;
56670;SDS011;42545;50.054;8.306;2022-10-16T05:09:04;2.00;;;1.80;;
56670;SDS011;42545;50.054;8.306;2022-10-16T05:11:33;1.55;;;1.45;;
56670;SDS011;42545;50.054;8.306;2022-10-16T05:14:01;2.50;;;2.03;;
56670;SDS011;42545;50.054;8.306;2022-10-16T05:16:28;2.30;;;1.80;;
56670;SDS011;42545;50.054;8.306;2022-10-16T05:18:57;1.60;;;1.45;;
56670;SDS011;42545;50.054;8.306;2022-10-16T05:21:24;1.60;;;1.50;;
56670;SDS011;42545;50.054;8.306;2022-10-16T05:23:50;1.60;;;1.50;;
56670;SDS011;42545;50.054;8.306;2022-10-16T05:26:19;1.63;;;1.23;;
56670;SDS011;42545;50.054;8.306;2022-10-16T05:28:46;1.30;;;1.20;;
56670;SDS011;42545;50.054;8.306;2022-10-16T05:31:13;1.38;;;1.20;;
56670;SDS011;42545;50.054;8.306;2022-10-16T05:33:40;1.48;;;1.38;;
56670;SDS011;42545;50.054;8.306;2022-10-16T05:36:10;2.92;;;1.92;;
56670;SDS011;42545;50.054;8.306;2022-10-16T05:38:38;2.67;;;2.38;;
56670;SDS011;42545;50.054;8.306;2022-10-16T05:41:05;2.17;;;1.98;;
56670;SDS011;42545;50.054;8.306;2022-10-16T05:43:32;3.30;;;2.63;;
56670;SDS011;42545;50.054;8.306;2022-10-16T05:46:01;2.50;;;2.30;;
56670;SDS011;42545;50.054;8.306;2022-10-16T05:48:30;3.50;;;2.13;;
56670;SDS011;42545;50.054;8.306;2022-10-16T05:50:57;2.53;;;2.05;;
56670;SDS011;42545;50.054;8.306;2022-10-16T05:53:28;2.45;;;1.90;;
56670;SDS011;42545;50.054;8.306;2022-10-16T05:55:55;3.58;;;2.20;;
56670;SDS011;42545;50.054;8.306;2022-10-16T05:58:23;1.90;;;1.70;;
56670;SDS011;42545;50.054;8.306;2022-10-16T06:00:54;1.73;;;1.60;;
56670;SDS011;42545;50.054;8.306;2022-10-16T06:03:22;1.90;;;1.70;;
56670;SDS011;42545;50.054;8.306;2022-10-16T06:05:49;1.58;;;1.23;;
56670;SDS011;42545;50.054;8.306;2022-10-16T06:08:16;1.40;;;1.30;;
56670;SDS011;42545;50.054;8.306;2022-10-16T06:10:45;1.60;;;1.40;;
56670;SDS011;42545;50.054;8.306;2022-10-16T06:13:13;1.10;;;1.00;;
56670;SDS011;42545;50.054;8.306;2022-10-16T06:15:41;1.10;;;1.00;;
56670;SDS011;42545;50.054;8.306;2022-10-16T06:18:09;1.15;;;1.05;;
56670;SDS011;42545;50.054;8.306;2022-10-16T06:20:36;1.00;;;0.90;;
56670;SDS011;42545;50.054;8.306;2022-10-16T06:23:03;1.30;;;1.02;;
56670;SDS011;42545;50.054;8.306;2022-10-16T06:25:30;1.20;;;1.10;;
56670;SDS011;42545;50.054;8.306;2022-10-16T06:27:59;1.27;;;1.17;;
56670;SDS011;42545;50.054;8.306;2022-10-16T06:30:26;1.13;;;1.00;;
56670;SDS011;42545;50.054;8.306;2022-10-16T06:32:52;1.17;;;1.00;;
56670;SDS011;42545;50.054;8.306;2022-10-16T06:35:19;0.90;;;0.90;;
56670;SDS011;42545;50.054;8.306;2022-10-16T06:37:46;1.20;;;1.10;;
56670;SDS011;42545;50.054;8.306;2022-10-16T06:40:15;0.98;;;0.90;;
56670;SDS011;42545;50.054;8.306;2022-10-16T06:42:41;1.40;;;1.20;;
56670;SDS011;42545;50.054;8.306;2022-10-16T06:45:10;1.08;;;0.90;;
56670;SDS011;42545;50.054;8.306;2022-10-16T06:47:38;1.30;;;1.20;;
56670;SDS011;42545;50.054;8.306;2022-10-16T06:50:06;1.23;;;1.10;;
56670;SDS011;42545;50.054;8.306;2022-10-16T06:52:33;1.73;;;1.30;;
56670;SDS011;42545;50.054;8.306;2022-10-16T06:55:01;1.20;;;1.10;;
56670;SDS011;42545;50.054;8.306;2022-10-16T06:57:28;1.88;;;1.30;;
56670;SDS011;42545;50.054;8.306;2022-10-16T06:59:55;2.00;;;1.80;;
56670;SDS011;42545;50.054;8.306;2022-10-16T07:02:23;2.50;;;1.90;;
56670;SDS011;42545;50.054;8.306;2022-10-16T07:04:50;2.20;;;1.80;;
56670;SDS011;42545;50.054;8.306;2022-10-16T07:07:16;2.97;;;2.45;;
56670;SDS011;42545;50.054;8.306;2022-10-16T07:09:43;2.40;;;1.95;;
56670;SDS011;42545;50.054;8.306;2022-10-16T07:12:10;2.40;;;1.98;;
56670;SDS011;42545;50.054;8.306;2022-10-16T07:14:37;2.20;;;1.83;;
56670;SDS011;42545;50.054;8.306;2022-10-16T07:17:04;1.50;;;1.40;;
56670;SDS011;42545;50.054;8.306;2022-10-16T07:19:32;1.50;;;1.40;;
56670;SDS011;42545;50.054;8.306;2022-10-16T07:21:59;2.00;;;1.52;;
56670;SDS011;42545;50.054;8.306;2022-10-16T07:24:26;1.55;;;1.45;;
56670;SDS011;42545;50.054;8.306;2022-10-16T07:26:53;1.52;;;1.35;;
56670;SDS011;42545;50.054;8.306;2022-10-16T07:29:20;1.48;;;1.27;;
56670;SDS011;42545;50.054;8.306;2022-10-16T07:31:48;1.25;;;1.10;;
56670;SDS011;42545;50.054;8.306;2022-10-16T07:34:16;3.17;;;2.50;;
56670;SDS011;42545;50.054;8.306;2022-10-16T07:36:49;8.73;;;5.47;;
56670;SDS011;42545;50.054;8.306;2022-10-16T07:39:16;6.60;;;4.00;;
56670;SDS011;42545;50.054;8.306;2022-10-16T07:41:43;3.78;;;3.38;;
56670;SDS011;42545;50.054;8.306;2022-10-16T07:44:11;3.95;;;3.22;;
56670;SDS011;42545;50.054;8.306;2022-10-16T07:46:38;3.63;;;2.90;;
56670;SDS011;42545;50.054;8.306;2022-10-16T07:49:05;2.92;;;2.42;;
56670;SDS011;42545;50.054;8.306;2022-10-16T07:51:32;3.30;;;2.60;;
56670;SDS011;42545;50.054;8.306;2022-10-16T07:54:01;3.10;;;2.70;;
56670;SDS011;42545;50.054;8.306;2022-10-16T07:56:29;4.10;;;2.92;;
56670;SDS011;42545;50.054;8.306;2022-10-16T07:58:57;4.22;;;3.47;;
56670;SDS011;42545;50.054;8.306;2022-10-16T08:01:23;4.97;;;3.88;;
56670;SDS011;42545;50.054;8.306;2022-10-16T08:03:51;3.75;;;3.28;;
56670;SDS011;42545;50.054;8.306;2022-10-16T08:06:18;4.75;;;4.15;;
56670;SDS011;42545;50.054;8.306;2022-10-16T08:08:46;4.95;;;3.88;;
56670;SDS011;42545;50.054;8.306;2022-10-16T08:11:15;4.45;;;3.65;;
56670;SDS011;42545;50.054;8.306;2022-10-16T08:13:42;5.90;;;4.40;;
56670;SDS011;42545;50.054;8.306;2022-10-16T08:16:09;5.22;;;3.97;;
56670;SDS011;42545;50.054;8.306;2022-10-16T08:18:37;3.88;;;3.47;;
56670;SDS011;42545;50.054;8.306;2022-10-16T08:21:05;3.92;;;3.53;;
56670;SDS011;42545;50.054;8.306;2022-10-16T08:23:33;3.30;;;3.00;;
56670;SDS011;42545;50.054;8.306;2022-10-16T08:26:04;4.55;;;3.95;;
56670;SDS011;42545;50.054;8.306;2022-10-16T08:28:33;4.95;;;4.03;;
56670;SDS011;42545;50.054;8.306;2022-10-16T08:31:05;5.07;;;4.13;;
56670;SDS011;42545;50.054;8.306;2022-10-16T08:33:32;4.75;;;3.88;;
56670;SDS011;42545;50.054;8.306;2022-10-16T08:36:00;4.00;;;3.30;;
56670;SDS011;42545;50.054;8.306;2022-10-16T08:38:27;4.88;;;3.50;;
56670;SDS011;42545;50.054;8.306;2022-10-16T08:40:54;3.85;;;3.13;;
56670;SDS011;42545;50.054;8.306;2022-10-16T08:43:39;6.47;;;4.85;;
56670;SDS011;42545;50.054;8.306;2022-10-16T08:46:21;10.07;;;7.03;;
56670;SDS011;42545;50.054;8.306;2022-10-16T08:48:57;8.18;;;6.05;;
56670;SDS011;42545;50.054;8.306;2022-10-16T08:51:26;8.93;;;5.93;;
56670;SDS011;42545;50.054;8.306;2022-10-16T08:53:56;11.38;;;5.45;;
56670;SDS011;42545;50.054;8.306;2022-10-16T08:56:24;12.23;;;6.22;;
56670;SDS011;42545;50.054;8.306;2022-10-16T08:58:54;6.65;;;4.95;;
56670;SDS011;42545;50.054;8.306;2022-10-16T09:01:21;5.65;;;4.30;;
56670;SDS011;42545;50.054;8.306;2022-10-16T09:04:03;6.05;;;4.63;;
56670;SDS011;42545;50.054;8.306;2022-10-16T09:06:47;4.60;;;4.10;;
56670;SDS011;42545;50.054;8.306;2022-10-16T09:09:24;4.20;;;3.80;;
56670;SDS011;42545;50.054;8.306;2022-10-16T09:12:11;4.00;;;3.35;;
56670;SDS011;42545;50.054;8.306;2022-10-16T09:14:50;4.07;;;3.25;;
56670;SDS011;42545;50.054;8.306;2022-10-16T09:20:12;3.75;;;3.33;;
56670;SDS011;42545;50.054;8.306;2022-10-16T09:22:46;3.97;;;2.95;;
56670;SDS011;42545;50.054;8.306;2022-10-16T09:25:14;3.80;;;2.92;;
56670;SDS011;42545;50.054;8.306;2022-10-16T09:27:42;2.67;;;2.45;;
56670;SDS011;42545;50.054;8.306;2022-10-16T09:30:16;2.10;;;1.90;;
56670;SDS011;42545;50.054;8.306;2022-10-16T09:32:45;2.50;;;2.10;;
56670;SDS011;42545;50.054;8.306;2022-10-16T09:35:14;2.30;;;2.10;;
56670;SDS011;42545;50.054;8.306;2022-10-16T09:40:12;2.10;;;1.90;;
56670;SDS011;42545;50.054;8.306;2022-10-16T09:42:39;2.10;;;1.90;;
56670;SDS011;42545;50.054;8.306;2022-10-16T09:45:20;1.85;;;1.70;;
56670;SDS011;42545;50.054;8.306;2022-10-16T09:47:47;1.55;;;1.45;;
56670;SDS011;42545;50.054;8.306;2022-10-16T09:50:20;1.52;;;1.42;;
56670;SDS011;42545;50.054;8.306;2022-10-16T09:52:50;1.55;;;1.45;;
56670;SDS011;42545;50.054;8.306;2022-10-16T09:55:17;1.58;;;1.48;;
56670;SDS011;42545;50.054;8.306;2022-10-16T09:57:48;1.52;;;1.40;;
56670;SDS011;42545;50.054;8.306;2022-10-16T10:00:16;2.95;;;1.98;;
56670;SDS011;42545;50.054;8.306;2022-10-16T10:02:46;2.28;;;1.77;;
56670;SDS011;42545;50.054;8.306;2022-10-16T10:05:20;2.10;;;1.90;;
56670;SDS011;42545;50.054;8.306;2022-10-16T10:07:53;2.08;;;1.52;;
56670;SDS011;42545;50.054;8.306;2022-10-16T10:10:22;1.50;;;1.40;;
56670;SDS011;42545;50.054;8.306;2022-10-16T10:12:51;2.97;;;2.30;;
56670;SDS011;42545;50.054;8.306;2022-10-16T10:15:21;1.60;;;1.50;;
56670;SDS011;42545;50.054;8.306;2022-10-16T10:17:51;3.17;;;2.20;;
56670;SDS011;42545;50.054;8.306;2022-10-16T10:20:23;2.83;;;2.28;;
56670;SDS011;42545;50.054;8.306;2022-10-16T10:22:52;2.85;;;2.05;;
56670;SDS011;42545;50.054;8.306;2022-10-16T10:25:26;2.80;;;2.47;;
56670;SDS011;42545;50.054;8.306;2022-10-16T10:28:06;3.47;;;2.47;;
56670;SDS011;42545;50.054;8.306;2022-10-16T10:30:47;3.47;;;2.58;;
56670;SDS011;42545;50.054;8.306;2022-10-16T10:33:24;4.07;;;2.70;;
56670;SDS011;42545;50.054;8.306;2022-10-16T10:35:58;4.78;;;2.90;;
56670;SDS011;42545;50.054;8.306;2022-10-16T10:38:38;7.22;;;4.68;;
56670;SDS011;42545;50.054;8.306;2022-10-16T10:41:13;6.13;;;3.70;;
56670;SDS011;42545;50.054;8.306;2022-10-16T10:43:54;4.18;;;3.55;;
56670;SDS011;42545;50.054;8.306;2022-10-16T10:46:31;6.72;;;3.80;;
56670;SDS011;42545;50.054;8.306;2022-10-16T10:49:07;4.38;;;3.42;;
56670;SDS011;42545;50.054;8.306;2022-10-16T10:51:44;4.65;;;3.50;;
56670;SDS011;42545;50.054;8.306;2022-10-16T10:54:23;4.28;;;3.05;;
56670;SDS011;42545;50.054;8.306;2022-10-16T10:56:56;4.28;;;2.67;;
56670;SDS011;42545;50.054;8.306;2022-10-16T10:59:46;2.85;;;2.60;;
56670;SDS011;42545;50.054;8.306;2022-10-16T11:02:22;2.67;;;2.35;;
56670;SDS011;42545;50.054;8.306;2022-10-16T11:05:02;5.55;;;2.97;;
56670;SDS011;42545;50.054;8.306;2022-10-16T11:10:25;2.40;;;2.20;;
56670;SDS011;42545;50.054;8.306;2022-10-16T11:12:57;4.10;;;3.25;;
56670;SDS011;42545;50.054;8.306;2022-10-16T11:15:33;4.22;;;3.35;;
56670;SDS011;42545;50.054;8.306;2022-10-16T11:18:04;3.40;;;3.10;;
56670;SDS011;42545;50.054;8.306;2022-10-16T11:20:37;4.03;;;3.03;;
56670;SDS011;42545;50.054;8.306;2022-10-16T11:23:11;3.17;;;2.72;;
56670;SDS011;42545;50.054;8.306;2022-10-16T11:25:42;3.67;;;3.03;;
56670;SDS011;42545;50.054;8.306;2022-10-16T11:28:10;3.40;;;2.60;;
56670;SDS011;42545;50.054;8.306;2022-10-16T11:30:41;3.45;;;2.28;;
56670;SDS011;42545;50.054;8.306;2022-10-16T11:33:20;2.78;;;2.28;;
56670;SDS011;42545;50.054;8.306;2022-10-16T11:35:59;4.30;;;2.17;;
56670;SDS011;42545;50.054;8.306;2022-10-16T11:38:30;3.65;;;2.47;;
56670;SDS011;42545;50.054;8.306;2022-10-16T11:41:02;3.88;;;2.75;;
56670;SDS011;42545;50.054;8.306;2022-10-16T11:43:34;2.97;;;2.13;;
56670;SDS011;42545;50.054;8.306;2022-10-16T11:46:08;2.60;;;2.15;;
56670;SDS011;42545;50.054;8.306;2022-10-16T11:48:40;3.15;;;2.25;;
56670;SDS011;42545;50.054;8.306;2022-10-16T11:51:14;4.28;;;2.45;;
56670;SDS011;42545;50.054;8.306;2022-10-16T11:53:50;3.17;;;2.58;;
56670;SDS011;42545;50.054;8.306;2022-10-16T11:56:20;2.67;;;2.30;;
56670;SDS011;42545;50.054;8.306;2022-10-16T11:58:51;2.67;;;2.40;;
56670;SDS011;42545;50.054;8.306;2022-10-16T12:01:26;2.70;;;2.13;;
56670;SDS011;42545;50.054;8.306;2022-10-16T12:04:01;6.38;;;2.25;;
56670;SDS011;42545;50.054;8.306;2022-10-16T12:06:39;3.35;;;2.30;;
56670;SDS011;42545;50.054;8.306;2022-10-16T12:09:10;3.60;;;1.98;;
56670;SDS011;42545;50.054;8.306;2022-10-16T12:11:46;3.17;;;1.58;;
56670;SDS011;42545;50.054;8.306;2022-10-16T12:14:33;2.88;;;1.90;;
56670;SDS011;42545;50.054;8.306;2022-10-16T12:17:03;3.28;;;1.95;;
56670;SDS011;42545;50.054;8.306;2022-10-16T12:19:58;4.25;;;1.98;;
56670;SDS011;42545;50.054;8.306;2022-10-16T12:22:29;1.90;;;1.70;;
56670;SDS011;42545;50.054;8.306;2022-10-16T12:24:59;5.82;;;2.50;;
56670;SDS011;42545;50.054;8.306;2022-10-16T12:27:27;2.72;;;1.90;;
56670;SDS011;42545;50.054;8.306;2022-10-16T12:32:27;2.10;;;1.80;;
56670;SDS011;42545;50.054;8.306;2022-10-16T12:34:57;2.20;;;1.88;;
56670;SDS011;42545;50.054;8.306;2022-10-16T12:37:26;2.20;;;2.00;;
56670;SDS011;42545;50.054;8.306;2022-10-16T12:39:55;2.08;;;1.80;;
56670;SDS011;42545;50.054;8.306;2022-10-16T12:42:30;2.95;;;1.95;;
56670;SDS011;42545;50.054;8.306;2022-10-16T12:44:59;2.15;;;1.95;;
56670;SDS011;42545;50.054;8.306;2022-10-16T12:47:37;2.85;;;2.35;;
56670;SDS011;42545;50.054;8.306;2022-10-16T12:50:34;2.03;;;1.73;;
56670;SDS011;42545;50.054;8.306;2022-10-16T12:53:03;2.22;;;1.95;;
56670;SDS011;42545;50.054;8.306;2022-10-16T12:55:55;1.80;;;1.70;;
56670;SDS011;42545;50.054;8.306;2022-10-16T12:58:36;2.65;;;1.85;;
56670;SDS011;42545;50.054;8.306;2022-10-16T13:01:19;1.80;;;1.70;;
56670;SDS011;42545;50.054;8.306;2022-10-16T13:04:03;1.50;;;1.40;;
56670;SDS011;42545;50.054;8.306;2022-10-16T13:06:42;1.58;;;1.48;;
56670;SDS011;42545;50.054;8.306;2022-10-16T13:09:21;1.65;;;1.50;;
56670;SDS011;42545;50.054;8.306;2022-10-16T13:12:02;1.40;;;1.30;;
56670;SDS011;42545;50.054;8.306;2022-10-16T13:14:54;1.40;;;1.30;;
56670;SDS011;42545;50.054;8.306;2022-10-16T13:17:33;2.47;;;1.60;;
56670;SDS011;42545;50.054;8.306;2022-10-16T13:20:11;2.35;;;1.42;;
56670;SDS011;42545;50.054;8.306;2022-10-16T13:22:45;1.70;;;1.50;;
56670;SDS011;42545;50.054;8.306;2022-10-16T13:25:24;1.88;;;1.40;;
56670;SDS011;42545;50.054;8.306;2022-10-16T13:28:01;1.25;;;1.15;;
56670;SDS011;42545;50.054;8.306;2022-10-16T13:30:33;1.98;;;1.15;;
56670;SDS011;42545;50.054;8.306;2022-10-16T13:33:07;1.50;;;1.40;;
56670;SDS011;42545;50.054;8.306;2022-10-16T13:35:46;1.40;;;1.30;;
56670;SDS011;42545;50.054;8.306;2022-10-16T13:38:16;1.15;;;1.08;;
56670;SDS011;42545;50.054;8.306;2022-10-16T13:40:52;1.65;;;1.40;;
56670;SDS011;42545;50.054;8.306;2022-10-16T13:43:24;1.15;;;1.08;;
56670;SDS011;42545;50.054;8.306;2022-10-16T13:45:54;1.95;;;1.55;;
56670;SDS011;42545;50.054;8.306;2022-10-16T13:48:23;1.70;;;1.20;;
56670;SDS011;42545;50.054;8.306;2022-10-16T13:50:59;1.30;;;1.20;;
56670;SDS011;42545;50.054;8.306;2022-10-16T13:53:34;1.70;;;1.60;;
56670;SDS011;42545;50.054;8.306;2022-10-16T13:56:03;1.73;;;1.20;;
56670;SDS011;42545;50.054;8.306;2022-10-16T13:58:33;1.30;;;1.20;;
56670;SDS011;42545;50.054;8.306;2022-10-16T14:01:02;1.30;;;1.20;;
56670;SDS011;42545;50.054;8.306;2022-10-16T14:03:31;1.42;;;1.20;;
56670;SDS011;42545;50.054;8.306;2022-10-16T14:06:01;1.30;;;1.20;;
56670;SDS011;42545;50.054;8.306;2022-10-16T14:08:29;1.25;;;1.15;;
56670;SDS011;42545;50.054;8.306;2022-10-16T14:10:58;1.38;;;1.27;;
56670;SDS011;42545;50.054;8.306;2022-10-16T14:13:29;1.45;;;1.35;;
56670;SDS011;42545;50.054;8.306;2022-10-16T14:16:05;1.20;;;1.10;;
56670;SDS011;42545;50.054;8.306;2022-10-16T14:18:35;1.30;;;1.20;;
56670;SDS011;42545;50.054;8.306;2022-10-16T14:21:04;1.42;;;1.08;;
56670;SDS011;42545;50.054;8.306;2022-10-16T14:23:34;1.25;;;1.10;;
56670;SDS011;42545;50.054;8.306;2022-10-16T14:26:17;1.20;;;1.10;;
56670;SDS011;42545;50.054;8.306;2022-10-16T14:28:47;1.23;;;1.13;;
56670;SDS011;42545;50.054;8.306;2022-10-16T14:31:25;1.50;;;1.40;;
56670;SDS011;42545;50.054;8.306;2022-10-16T14:33:55;1.30;;;1.20;;
56670;SDS011;42545;50.054;8.306;2022-10-16T14:36:22;1.27;;;1.17;;
56670;SDS011;42545;50.054;8.306;2022-10-16T14:38:56;1.10;;;1.00;;
56670;SDS011;42545;50.054;8.306;2022-10-16T14:41:27;1.05;;;0.98;;
56670;SDS011;42545;50.054;8.306;2022-10-16T14:43:57;1.20;;;1.10;;
56670;SDS011;42545;50.054;8.306;2022-10-16T14:46:28;1.20;;;1.10;;
56670;SDS011;42545;50.054;8.306;2022-10-16T14:49:00;0.80;;;0.80;;
56670;SDS011;42545;50.054;8.306;2022-10-16T14:51:29;1.00;;;1.00;;
56670;SDS011;42545;50.054;8.306;2022-10-16T14:53:56;1.00;;;0.93;;
56670;SDS011;42545;50.054;8.306;2022-10-16T14:56:24;1.20;;;1.10;;
56670;SDS011;42545;50.054;8.306;2022-10-16T15:01:28;1.25;;;1.15;;
56670;SDS011;42545;50.054;8.306;2022-10-16T15:03:55;1.15;;;1.05;;
56670;SDS011;42545;50.054;8.306;2022-10-16T15:06:22;1.05;;;1.00;;
56670;SDS011;42545;50.054;8.306;2022-10-16T15:08:49;1.05;;;0.95;;
56670;SDS011;42545;50.054;8.306;2022-10-16T15:11:16;1.30;;;1.20;;
56670;SDS011;42545;50.054;8.306;2022-10-16T15:13:45;1.27;;;0.93;;
56670;SDS011;42545;50.054;8.306;2022-10-16T15:16:15;1.17;;;1.08;;
56670;SDS011;42545;50.054;8.306;2022-10-16T15:18:43;0.95;;;0.93;;
56670;SDS011;42545;50.054;8.306;2022-10-16T15:21:12;1.13;;;1.02;;
56670;SDS011;42545;50.054;8.306;2022-10-16T15:23:49;1.17;;;1.08;;
56670;SDS011;42545;50.054;8.306;2022-10-16T15:26:16;0.90;;;0.90;;